Time;durP1;ratioP1;P1;durP2;ratioP2;P2;SDS_P1;SDS_P2;PMS_P1;PMS_P2;Temp;Humidity;BMP_temperature;BMP_pressure;BME280_temperature;BME280_humidity;BME280_pressure;Samples;Min_cycle;Max_cycle;Signal;HPM_P1;HPM_P2
2022/03/10 00:00:13;;;;;;;26.20;13.68;;;;;;;1.17;98.94;101253.81;4992715;28;20052;-74
2022/03/10 00:02:57;;;;;;;25.00;12.18;;;;;;;1.17;94.21;101250.34;4993523;28;20049;-70
2022/03/10 00:05:42;;;;;;;25.42;12.52;;;;;;;1.16;94.93;101251.28;4993713;28;20073;-74
2022/03/10 00:08:26;;;;;;;22.35;12.18;;;;;;;1.12;92.71;101263.66;4992274;28;20045;-75
2022/03/10 00:11:10;;;;;;;32.08;14.75;;;;;;;1.16;92.76;101259.16;4993461;28;20053;-74
2022/03/10 00:13:54;;;;;;;;;;;;;;;1.13;95.68;101268.00;4993139;28;20129;-73
2022/03/10 00:16:38;;;;;;;26.10;12.52;;;;;;;1.09;97.83;101266.44;4992515;28;20012;-74
2022/03/10 00:19:22;;;;;;;29.55;15.00;;;;;;;1.22;97.29;101277.28;4995605;28;20104;-74
2022/03/10 00:22:06;;;;;;;26.80;13.77;;;;;;;1.12;96.92;101278.56;4999905;28;20053;-74
2022/03/10 00:24:50;;;;;;;27.20;13.07;;;;;;;1.03;96.58;101277.16;4999150;28;20426;-75
2022/03/10 00:27:35;;;;;;;26.90;13.98;;;;;;;0.95;97.62;101281.84;4999987;28;20049;-74
2022/03/10 00:30:19;;;;;;;25.67;13.63;;;;;;;0.90;96.90;101281.19;5000268;28;20176;-75
2022/03/10 00:33:03;;;;;;;31.88;15.13;;;;;;;0.83;95.64;101282.34;4985666;28;20056;-75
2022/03/10 00:35:47;;;;;;;32.30;15.82;;;;;;;0.83;93.75;101279.72;4999532;28;20107;-74
2022/03/10 00:38:31;;;;;;;36.00;16.02;;;;;;;0.87;91.84;101286.56;4998567;28;20513;-74
2022/03/10 00:41:15;;;;;;;30.90;15.73;;;;;;;0.88;91.81;101283.03;4998662;28;20105;-74
2022/03/10 00:43:59;;;;;;;30.27;14.38;;;;;;;0.86;94.13;101276.94;4998894;28;20462;-74
2022/03/10 00:46:43;;;;;;;32.17;15.82;;;;;;;0.84;94.45;101284.03;4999748;28;20057;-74
2022/03/10 00:49:26;;;;;;;29.02;14.68;;;;;;;0.81;95.16;101291.16;4999492;28;20517;-74
2022/03/10 00:52:10;;;;;;;27.58;13.32;;;;;;;0.76;95.43;101286.09;4999507;28;20551;-74
2022/03/10 00:54:54;;;;;;;32.50;13.98;;;;;;;0.67;94.62;101281.22;4998500;28;20061;-74
2022/03/10 00:57:39;;;;;;;29.63;14.15;;;;;;;0.70;93.17;101278.47;4999401;28;20065;-74
2022/03/10 01:00:24;;;;;;;28.00;14.68;;;;;;;0.69;95.02;101276.75;4998537;28;20145;-74
2022/03/10 01:03:08;;;;;;;32.17;15.02;;;;;;;0.58;95.41;101278.94;4999294;28;20133;-75
2022/03/10 01:05:52;;;;;;;38.13;18.02;;;;;;;0.60;94.60;101281.50;4999305;28;20096;-72
2022/03/10 01:08:36;;;;;;;32.28;15.95;;;;;;;0.66;96.01;101282.09;4998455;28;20115;-75
2022/03/10 01:11:20;;;;;;;32.67;14.77;;;;;;;0.64;97.46;101290.97;4999456;28;20057;-74
2022/03/10 01:14:04;;;;;;;;;;;;;;;0.47;99.88;101285.50;4998599;28;20076;-74
2022/03/10 01:16:48;;;;;;;25.90;12.95;;;;;;;0.46;100.00;101292.53;4999292;28;20100;-74
2022/03/10 01:19:32;;;;;;;34.28;14.50;;;;;;;0.43;100.00;101292.63;4999331;28;20069;-74
2022/03/10 01:22:16;;;;;;;32.03;15.63;;;;;;;0.40;100.00;101300.59;4998344;28;20053;-74
2022/03/10 01:25:01;;;;;;;28.15;14.85;;;;;;;0.39;100.00;101292.78;4998431;28;20082;-74
2022/03/10 01:27:46;;;;;;;31.13;16.17;;;;;;;0.35;100.00;101281.53;4999395;28;20053;-74
2022/03/10 01:30:30;;;;;;;35.83;16.55;;;;;;;0.33;100.00;101278.13;4997037;28;20094;-73
2022/03/10 01:33:14;;;;;;;39.88;17.27;;;;;;;0.30;100.00;101287.88;4996065;28;20104;-74
2022/03/10 01:35:57;;;;;;;32.08;16.45;;;;;;;0.31;99.47;101285.19;4996122;28;20104;-74
2022/03/10 01:38:42;;;;;;;36.00;18.15;;;;;;;0.23;97.59;101284.63;4996207;28;20056;-74
2022/03/10 01:41:26;;;;;;;36.10;15.68;;;;;;;0.22;98.21;101288.16;4995844;28;20130;-74
2022/03/10 01:44:10;;;;;;;31.10;15.82;;;;;;;0.29;98.17;101287.03;4996122;28;20108;-74
2022/03/10 01:46:55;;;;;;;32.60;15.65;;;;;;;0.23;100.00;101275.91;4995979;28;20053;-74
2022/03/10 01:49:38;;;;;;;33.28;15.65;;;;;;;0.18;100.00;101288.31;4996104;28;20516;-74
2022/03/10 01:52:23;;;;;;;35.13;16.60;;;;;;;0.14;100.00;101277.06;4995849;28;20089;-75
2022/03/10 01:55:07;;;;;;;29.65;14.57;;;;;;;0.11;100.00;101273.72;4995009;28;20161;-75
2022/03/10 01:57:52;;;;;;;32.83;15.77;;;;;;;0.08;100.00;101286.94;4995843;28;20101;-73
2022/03/10 02:00:35;;;;;;;30.20;14.85;;;;;;;0.07;100.00;101280.84;4994650;28;20545;-74
2022/03/10 02:03:19;;;;;;;26.70;14.30;;;;;;;0.03;100.00;101276.59;4994466;28;20053;-74
2022/03/10 02:06:04;;;;;;;25.45;14.85;;;;;;;0.02;100.00;101282.75;4995739;28;20130;-74
2022/03/10 02:11:51;;;;;;;33.42;14.80;;;;;;;-0.04;100.00;101261.16;5040672;23;20076;-71
2022/03/10 02:17:40;;;;;;;25.42;14.40;;;;;;;0.03;100.00;101273.97;5034650;28;20048;-71
2022/03/10 02:20:24;;;;;;;34.30;16.65;;;;;;;-0.12;100.00;101272.81;5033686;28;20516;-72
2022/03/10 02:23:10;;;;;;;33.17;16.38;;;;;;;-0.26;100.00;101275.03;5034075;28;20080;-71
2022/03/10 02:25:58;;;;;;;34.60;15.27;;;;;;;-0.44;100.00;101273.06;5034771;28;20136;-71
2022/03/10 02:28:42;;;;;;;32.30;16.02;;;;;;;-0.46;100.00;101277.47;5033414;28;20128;-71
2022/03/10 02:31:29;;;;;;;;;;;;;;;-0.57;100.00;101279.59;5034753;28;20139;-71
2022/03/10 02:34:13;;;;;;;35.30;14.80;;;;;;;-0.62;100.00;101276.28;5034758;28;19932;-71
2022/03/10 02:36:57;;;;;;;32.53;15.32;;;;;;;-0.64;100.00;101278.94;5033310;28;20144;-71
2022/03/10 02:39:41;;;;;;;;;;;;;;;-0.68;100.00;101276.47;5034126;28;20098;-71
2022/03/10 02:42:26;;;;;;;32.75;15.38;;;;;;;-0.73;100.00;101270.56;5032968;28;20438;-71
2022/03/10 02:45:11;;;;;;;32.97;15.88;;;;;;;-0.70;100.00;101275.69;5034567;28;20087;-71
2022/03/10 02:47:55;;;;;;;33.90;14.85;;;;;;;-0.66;100.00;101275.53;5034494;28;20052;-71
2022/03/10 02:50:40;;;;;;;29.67;14.70;;;;;;;-0.62;100.00;101278.91;5034140;28;20061;-71
2022/03/10 02:53:24;;;;;;;29.50;14.75;;;;;;;-0.59;100.00;101282.28;5034209;28;20114;-71
2022/03/10 02:56:08;;;;;;;31.73;15.50;;;;;;;-0.61;100.00;101278.00;5032768;28;20084;-71
2022/03/10 02:58:52;;;;;;;;;;;;;;;-0.61;100.00;101278.00;5034240;28;20073;-71
2022/03/10 03:01:37;;;;;;;30.50;14.73;;;;;;;-0.53;100.00;101281.25;5032701;28;19920;-71
2022/03/10 03:04:20;;;;;;;31.33;14.88;;;;;;;-0.54;100.00;101284.75;5032915;28;20136;-71
2022/03/10 03:07:05;;;;;;;28.90;14.55;;;;;;;-0.58;100.00;101289.25;5032885;28;20138;-71
2022/03/10 03:09:49;;;;;;;27.65;14.50;;;;;;;-0.62;100.00;101290.22;5032815;28;20453;-71
2022/03/10 03:12:33;;;;;;;;;;;;;;;-0.64;100.00;101293.81;5033842;28;20118;-71
2022/03/10 03:15:18;;;;;;;28.02;15.30;;;;;;;-0.71;100.00;101292.31;5033707;28;20334;-71
2022/03/10 03:18:02;;;;;;;31.83;15.73;;;;;;;-0.73;100.00;101294.13;5033764;28;20049;-71
2022/03/10 03:20:45;;;;;;;33.35;16.67;;;;;;;-0.70;100.00;101294.00;5033341;28;20461;-71
2022/03/10 03:23:29;;;;;;;;;;;;;;;-0.70;100.00;101296.63;5034034;28;20131;-71
2022/03/10 03:26:14;;;;;;;32.53;15.43;;;;;;;-0.61;100.00;101298.97;5032296;28;19920;-71
2022/03/10 03:28:58;;;;;;;29.15;16.10;;;;;;;-0.67;100.00;101299.13;5032718;28;20079;-71
2022/03/10 03:31:42;;;;;;;;;;;;;;;-0.65;100.00;101297.34;5033859;28;20548;-71
2022/03/10 03:34:26;;;;;;;23.25;11.45;;;;;;;-0.68;100.00;101297.44;5032300;28;19940;-70
2022/03/10 03:37:10;;;;;;;33.13;16.58;;;;;;;-0.70;100.00;101304.50;5033381;28;20048;-71
2022/03/10 03:39:54;;;;;;;33.53;15.93;;;;;;;-0.72;100.00;101301.06;5033319;28;20048;-71
2022/03/10 03:42:38;;;;;;;30.00;15.65;;;;;;;-0.74;100.00;101297.66;5032101;28;20416;-71
2022/03/10 03:45:22;;;;;;;29.17;14.98;;;;;;;-0.77;100.00;101308.19;5032079;28;20044;-71
2022/03/10 03:48:06;;;;;;;29.20;15.73;;;;;;;-0.79;100.00;101305.66;5032967;28;20050;-71
2022/03/10 03:50:50;;;;;;;32.33;15.75;;;;;;;-0.82;100.00;101304.88;5032111;28;20563;-71
2022/03/10 03:53:34;;;;;;;30.42;15.60;;;;;;;-0.84;100.00;101306.69;5031234;28;20052;-71
2022/03/10 03:56:18;;;;;;;;;;;;;;;-0.85;100.00;101315.47;5033215;28;20049;-71
2022/03/10 03:59:02;;;;;;;30.60;15.52;;;;;;;-0.86;100.00;101303.28;5032889;28;19974;-71
2022/03/10 04:01:46;;;;;;;;;;;;;;;-0.84;100.00;101311.94;5032059;28;20128;-71
2022/03/10 04:04:30;;;;;;;33.22;16.60;;;;;;;-0.77;100.00;101308.19;5031920;28;19935;-71
2022/03/10 04:07:15;;;;;;;28.80;15.80;;;;;;;-0.76;100.00;101313.38;5033003;28;20094;-71
2022/03/10 04:10:00;;;;;;;37.22;17.67;;;;;;;-0.74;100.00;101313.34;5031849;28;20048;-70
2022/03/10 04:12:44;;;;;;;31.98;16.20;;;;;;;-0.74;100.00;101313.34;5004215;28;20064;-71
2022/03/10 04:15:28;;;;;;;30.92;15.52;;;;;;;-0.75;100.00;101316.88;5032590;28;20052;-71
2022/03/10 04:18:12;;;;;;;35.63;15.93;;;;;;;-0.73;100.00;101322.91;5032843;28;20052;-71
2022/03/10 04:20:59;;;;;;;;;;;;;;;-0.75;100.00;101322.13;5031897;28;20052;-71
2022/03/10 04:23:43;;;;;;;28.20;14.60;;;;;;;-0.76;100.00;101326.47;5031582;28;20407;-71
2022/03/10 04:26:27;;;;;;;;;;;;;;;-0.78;100.00;101328.31;5031966;28;20080;-71
2022/03/10 04:29:12;;;;;;;31.50;15.57;;;;;;;-0.77;100.00;101329.13;5032669;28;19940;-71
2022/03/10 04:31:56;;;;;;;31.98;15.88;;;;;;;-0.81;100.00;101323.16;5032380;28;20048;-71
2022/03/10 04:34:39;;;;;;;26.58;14.13;;;;;;;-0.86;100.00;101327.69;5031818;28;20064;-71
2022/03/10 04:37:23;;;;;;;31.98;16.00;;;;;;;-0.90;100.00;101327.81;5031622;28;20115;-71
2022/03/10 04:40:07;;;;;;;;;;;;;;;-0.88;100.00;101318.16;5032847;28;20053;-71
2022/03/10 04:42:51;;;;;;;25.73;12.98;;;;;;;-0.94;100.00;101318.34;5031898;28;20269;-71
2022/03/10 04:45:35;;;;;;;33.10;15.68;;;;;;;-1.00;100.00;101311.56;5031529;28;20052;-71
2022/03/10 04:48:19;;;;;;;;;;;;;;;-1.01;100.00;101314.19;5032960;28;20055;-71
2022/03/10 04:51:03;;;;;;;39.08;17.75;;;;;;;-1.24;100.00;101311.44;5032373;28;20434;-71
2022/03/10 04:53:47;;;;;;;;;;;;;;;-1.33;100.00;101311.69;5031874;28;20132;-71
2022/03/10 04:56:31;;;;;;;39.33;17.83;;;;;;;-1.44;100.00;101304.16;5031402;28;19924;-71
2022/03/10 04:59:15;;;;;;;38.88;17.88;;;;;;;-1.46;100.00;101315.59;5032490;28;20048;-71
2022/03/10 05:01:59;;;;;;;32.20;16.33;;;;;;;-1.50;100.00;101314.81;5031182;28;20072;-71
2022/03/10 05:04:43;;;;;;;;;;;;;;;-1.50;100.00;101314.81;5033125;28;20436;-71
2022/03/10 05:07:27;;;;;;;40.25;18.48;;;;;;;-1.50;100.00;101319.16;5036425;28;20298;-71
2022/03/10 05:10:12;;;;;;;34.85;16.45;;;;;;;-1.56;100.00;101314.13;5035092;28;20099;-71
2022/03/10 05:13:00;;;;;;;34.55;16.42;;;;;;;-1.56;100.00;101316.75;5034959;28;20044;-71
2022/03/10 05:15:45;;;;;;;39.17;18.15;;;;;;;-1.58;100.00;101326.41;5021381;28;20140;-71
2022/03/10 05:18:29;;;;;;;;;;;;;;;-1.62;100.00;101324.75;5036379;28;20203;-71
2022/03/10 05:21:13;;;;;;;38.30;19.90;;;;;;;-1.82;100.00;101327.06;5034691;28;19920;-71
2022/03/10 05:23:57;;;;;;;35.83;17.73;;;;;;;-1.83;100.00;101335.81;5036044;28;20091;-71
2022/03/10 05:26:41;;;;;;;;;;;;;;;-1.79;100.00;101335.69;5035272;28;20069;-72
2022/03/10 05:29:25;;;;;;;40.05;18.48;;;;;;;-1.70;100.00;101326.72;5035788;28;19923;-71
2022/03/10 05:32:11;;;;;;;39.50;18.35;;;;;;;-1.65;100.00;101330.06;5035418;28;20458;-71
2022/03/10 05:34:55;;;;;;;39.63;18.88;;;;;;;-1.70;100.00;101332.81;5034581;28;20061;-71
2022/03/10 05:37:40;;;;;;;;;;;;;;;-1.73;100.00;101337.25;5035025;28;20124;-71
2022/03/10 05:40:24;;;;;;;37.17;16.75;;;;;;;-1.79;100.00;101332.19;5035520;28;20380;-72
2022/03/10 05:43:09;;;;;;;36.55;18.90;;;;;;;-1.76;100.00;101337.34;5034253;28;20040;-71
2022/03/10 05:45:53;;;;;;;42.33;18.08;;;;;;;-1.78;100.00;101340.00;5035507;28;20103;-71
2022/03/10 05:48:37;;;;;;;;;;;;;;;-1.76;100.00;101342.59;5035786;28;20052;-71
2022/03/10 05:51:21;;;;;;;36.15;17.65;;;;;;;-1.81;100.00;101339.22;5035905;28;20062;-72
2022/03/10 05:54:05;;;;;;;;;;;;;;;-1.85;100.00;101340.22;5034377;28;20056;-71
2022/03/10 05:56:49;;;;;;;33.17;16.20;;;;;;;-1.82;100.00;101337.50;5034009;28;20312;-72
2022/03/10 05:59:32;;;;;;;36.15;17.27;;;;;;;-1.74;100.00;101349.50;5033944;28;20047;-72
2022/03/10 06:02:17;;;;;;;;;;;;;;;-1.82;100.00;101345.34;5035600;28;20044;-72
2022/03/10 06:05:01;;;;;;;30.42;16.35;;;;;;;-1.79;100.00;101337.41;5033864;28;19948;-72
2022/03/10 06:07:45;;;;;;;37.13;17.50;;;;;;;-1.74;100.00;101344.25;5033880;28;20419;-72
2022/03/10 06:10:29;;;;;;;36.92;18.73;;;;;;;-1.71;100.00;101341.56;5033823;28;20512;-72
2022/03/10 06:13:13;;;;;;;39.33;17.90;;;;;;;-1.64;100.00;101347.47;5034170;28;20052;-72
2022/03/10 06:15:57;;;;;;;;;;;;;;;-1.59;100.00;101340.34;5035321;28;20048;-72
2022/03/10 06:18:41;;;;;;;31.52;13.63;;;;;;;-1.57;100.00;101351.63;5034060;28;19978;-72
2022/03/10 06:21:26;;;;;;;41.13;17.35;;;;;;;-1.55;100.00;101349.84;5034785;28;20052;-72
2022/03/10 06:24:11;;;;;;;34.30;17.15;;;;;;;-1.49;100.00;101344.41;5019778;28;20140;-72
2022/03/10 06:26:55;;;;;;;36.25;17.67;;;;;;;-1.42;100.00;101349.44;5033854;28;20103;-72
2022/03/10 06:29:43;;;;;;;36.67;17.70;;;;;;;-1.38;100.00;101351.06;5033594;28;20048;-72
2022/03/10 06:32:27;;;;;;;32.50;17.30;;;;;;;-1.33;100.00;101361.41;5019583;28;20392;-72
2022/03/10 06:35:11;;;;;;;;;;;;;;;-1.32;100.00;101361.38;5035014;28;20056;-72
2022/03/10 06:37:55;;;;;;;34.65;17.75;;;;;;;-1.26;100.00;101355.94;5034536;28;20042;-72
2022/03/10 06:40:38;;;;;;;38.95;18.35;;;;;;;-1.24;100.00;101369.81;5033289;28;20188;-72
2022/03/10 06:43:22;;;;;;;34.35;17.70;;;;;;;-1.21;100.00;101372.38;5033440;28;20103;-72
2022/03/10 06:46:06;;;;;;;;;;;;;;;-1.13;100.00;101362.53;5034971;28;20459;-72
2022/03/10 06:48:50;;;;;;;37.85;18.23;;;;;;;-1.07;100.00;101364.13;5034128;28;20023;-72
2022/03/10 06:51:34;;;;;;;;;;;;;;;-1.01;100.00;101366.53;5033289;28;20056;-72
2022/03/10 06:54:18;;;;;;;26.60;13.88;;;;;;;-0.92;100.00;101374.13;5033899;28;20229;-72
2022/03/10 06:57:02;;;;;;;;;;;;;;;-0.82;100.00;101376.41;5033480;28;20048;-72
2022/03/10 06:59:46;;;;;;;37.27;17.67;;;;;;;-0.69;100.00;101374.28;5034091;28;20368;-72
2022/03/10 07:02:29;;;;;;;;;;;;;;;-0.56;100.00;101370.34;5034209;28;20575;-72
2022/03/10 07:05:14;;;;;;;39.13;18.08;;;;;;;-0.38;100.00;101382.88;5033805;28;19920;-72
2022/03/10 07:07:58;;;;;;;40.67;17.98;;;;;;;-0.13;100.00;101378.56;5033084;28;20079;-72
2022/03/10 07:10:42;;;;;;;36.42;17.45;;;;;;;0.07;100.00;101375.22;5032397;28;20180;-74
2022/03/10 07:13:26;;;;;;;35.95;17.25;;;;;;;0.20;100.00;101381.75;5018830;28;20176;-73
2022/03/10 07:16:11;;;;;;;36.25;18.40;;;;;;;0.26;100.00;101386.81;5033469;28;20046;-72
2022/03/10 07:18:55;;;;;;;37.72;17.77;;;;;;;0.36;100.00;101384.69;5032864;28;20135;-72
2022/03/10 07:21:39;;;;;;;36.80;18.05;;;;;;;0.49;100.00;101383.34;5032518;28;20068;-72
2022/03/10 07:24:23;;;;;;;;;;;;;;;0.70;100.00;101386.06;5033254;28;20096;-73
2022/03/10 07:27:07;;;;;;;34.63;17.10;;;;;;;0.86;100.00;101383.75;5033363;28;19935;-72
2022/03/10 07:29:50;;;;;;;;;;;;;;;1.08;100.00;101388.16;5033329;28;20079;-72
2022/03/10 07:32:34;;;;;;;34.55;17.55;;;;;;;1.24;100.00;101381.38;5033524;28;20002;-73
2022/03/10 07:35:18;;;;;;;34.55;15.65;;;;;;;1.41;100.00;101393.84;5018143;28;20103;-72
2022/03/10 07:38:02;;;;;;;30.13;16.58;;;;;;;1.56;100.00;101394.09;5018154;28;20425;-73
2022/03/10 07:40:46;;;;;;;33.97;17.13;;;;;;;1.78;100.00;101389.69;5033390;28;20128;-73
2022/03/10 07:43:30;;;;;;;33.45;15.43;;;;;;;1.92;100.00;101397.03;5018356;28;20052;-72
2022/03/10 07:46:14;;;;;;;26.92;15.10;;;;;;;2.01;99.67;101402.78;5032131;28;20048;-73
2022/03/10 07:48:58;;;;;;;31.02;15.65;;;;;;;2.18;99.52;101407.31;5033262;28;20350;-72
2022/03/10 07:51:44;;;;;;;35.47;15.93;;;;;;;2.33;99.33;101404.91;5033134;28;20103;-72
2022/03/10 07:54:28;;;;;;;29.40;15.43;;;;;;;2.51;97.45;101399.69;5033119;28;20107;-71
2022/03/10 07:57:12;;;;;;;28.90;15.38;;;;;;;2.67;96.79;101399.88;5032908;28;20048;-73
2022/03/10 07:59:55;;;;;;;29.67;16.00;;;;;;;2.75;93.86;101393.34;5031842;28;20055;-72
2022/03/10 08:02:39;;;;;;;;;;;;;;;2.92;90.87;101396.09;5032238;28;20064;-72
2022/03/10 08:05:23;;;;;;;29.63;14.77;;;;;;;3.08;90.30;101390.97;5033074;28;19920;-73
2022/03/10 08:08:07;;;;;;;37.80;16.08;;;;;;;3.14;88.16;101385.44;5031655;28;20052;-73
2022/03/10 08:10:51;;;;;;;39.28;15.73;;;;;;;3.23;88.08;101377.94;5031556;28;20056;-73
2022/03/10 08:13:35;;;;;;;26.73;15.95;;;;;;;3.52;85.91;101381.84;5031910;28;20469;-73
2022/03/10 08:16:19;;;;;;;34.05;15.88;;;;;;;3.67;83.37;101381.94;5017869;28;20076;-72
2022/03/10 08:19:03;;;;;;;;;;;;;;;3.79;81.99;101380.50;5032304;28;20099;-72
2022/03/10 08:21:47;;;;;;;28.58;15.43;;;;;;;4.03;81.44;101377.53;5031481;28;19920;-72
2022/03/10 08:24:31;;;;;;;28.77;15.05;;;;;;;4.12;80.22;101374.44;5032799;28;20049;-72
2022/03/10 08:27:15;;;;;;;33.42;15.55;;;;;;;4.24;77.59;101365.00;5032781;28;20500;-72
2022/03/10 08:32:47;;;;;;;38.80;17.38;;;;;;;4.47;73.73;101359.44;5011668;28;19929;-75
2022/03/10 08:35:31;;;;;;;35.08;18.13;;;;;;;4.55;71.79;101363.38;5012990;28;20037;-76
2022/03/10 08:38:16;;;;;;;37.55;16.15;;;;;;;4.61;71.08;101351.63;5012791;28;20049;-76
2022/03/10 08:41:00;;;;;;;38.30;16.77;;;;;;;4.66;69.92;101350.44;5000356;28;20069;-76
2022/03/10 08:43:44;;;;;;;36.63;17.40;;;;;;;4.80;71.39;101352.38;5001948;28;20068;-73
2022/03/10 08:46:28;;;;;;;30.98;16.02;;;;;;;4.93;68.75;101349.81;5016933;28;20041;-75
2022/03/10 08:49:13;;;;;;;27.70;16.15;;;;;;;5.01;68.42;101345.00;5001677;28;20144;-75
2022/03/10 08:51:57;;;;;;;30.10;14.77;;;;;;;5.15;66.36;101344.25;5016660;28;20563;-76
2022/03/10 08:54:41;;;;;;;27.33;15.57;;;;;;;5.28;66.47;101334.69;5016312;28;20094;-75
2022/03/10 08:57:25;;;;;;;24.60;14.52;;;;;;;5.43;66.86;101334.69;5001689;28;20048;-75
2022/03/10 09:00:10;;;;;;;27.63;14.90;;;;;;;5.54;63.90;101337.56;5001844;28;20100;-75
2022/03/10 09:02:55;;;;;;;27.70;15.20;;;;;;;5.74;63.47;101328.50;5016283;28;20452;-72
2022/03/10 09:05:40;;;;;;;29.65;15.68;;;;;;;5.85;62.96;101328.78;5016180;28;20413;-75
2022/03/10 09:08:24;;;;;;;26.35;14.93;;;;;;;5.96;63.46;101327.19;5001708;28;20053;-74
2022/03/10 09:11:08;;;;;;;28.10;15.13;;;;;;;6.19;63.14;101321.41;5001422;28;20053;-75
2022/03/10 09:13:52;;;;;;;27.38;14.38;;;;;;;6.38;60.62;101316.69;5015991;28;20523;-73
2022/03/10 09:16:36;;;;;;;26.30;14.52;;;;;;;6.59;59.03;101310.13;5016043;28;20055;-74
2022/03/10 09:19:20;;;;;;;45.85;17.30;;;;;;;6.79;58.46;101317.66;5001473;28;20049;-73
2022/03/10 09:22:04;;;;;;;28.52;14.50;;;;;;;6.99;57.08;101305.81;5000946;28;20217;-75
2022/03/10 09:24:48;;;;;;;24.73;13.95;;;;;;;7.30;56.06;101306.41;5016337;28;20037;-75
2022/03/10 09:27:33;;;;;;;26.45;15.45;;;;;;;7.50;54.37;101305.97;5016029;28;20103;-76
2022/03/10 09:30:16;;;;;;;28.23;14.95;;;;;;;8.09;54.28;101295.75;5015589;28;20501;-75
2022/03/10 09:33:01;;;;;;;31.15;15.52;;;;;;;9.45;51.45;101293.06;5016249;28;20056;-75
2022/03/10 09:35:45;;;;;;;25.77;13.43;;;;;;;10.52;46.86;101278.59;5001028;28;20130;-76
2022/03/10 09:38:29;;;;;;;26.73;15.35;;;;;;;12.87;43.17;101289.91;5000737;28;20125;-75
2022/03/10 09:41:13;;;;;;;23.77;15.00;;;;;;;14.98;38.41;101285.34;5000743;28;20107;-75
2022/03/10 09:43:57;;;;;;;26.33;14.73;;;;;;;16.47;34.86;101280.88;5015785;28;20052;-75
2022/03/10 09:46:43;;;;;;;24.00;14.93;;;;;;;18.44;31.83;101287.28;5015476;28;20438;-75
2022/03/10 09:49:27;;;;;;;21.85;14.80;;;;;;;18.72;30.64;101291.31;5015736;28;20049;-76
2022/03/10 09:52:12;;;;;;;22.90;14.85;;;;;;;18.94;29.31;101287.88;5014706;28;20445;-75
2022/03/10 09:54:56;;;;;;;165.98;97.53;;;;;;;20.70;28.78;101292.19;5000428;28;20116;-76
2022/03/10 09:57:42;;;;;;;20.55;15.43;;;;;;;21.69;26.57;101289.66;5015508;28;20560;-76
2022/03/10 10:00:27;;;;;;;23.00;15.18;;;;;;;22.20;25.60;101280.41;5000568;28;20096;-76
2022/03/10 10:03:11;;;;;;;28.05;16.33;;;;;;;21.19;25.86;101277.97;5000447;28;20188;-76
2022/03/10 10:05:59;;;;;;;19.38;14.63;;;;;;;21.87;25.24;101273.81;5015308;28;20049;-76
2022/03/10 10:08:53;;;;;;;26.02;15.30;;;;;;;23.16;24.39;101256.91;5015311;28;20107;-76
2022/03/10 10:11:39;;;;;;;28.55;21.92;;;;;;;-139.48;100.00;61774.03;5015038;28;20045;-75
2022/03/10 10:14:42;;;;;;;19.63;15.35;;;;;;;26.20;21.90;101254.13;5000648;28;20128;-76
2022/03/10 10:17:28;;;;;;;23.98;16.17;;;;;;;26.74;20.98;101246.13;5015157;28;20180;-76
2022/03/10 10:20:12;;;;;;;22.30;15.95;;;;;;;26.75;20.09;101242.31;5000023;28;20068;-76
2022/03/10 10:22:56;;;;;;;20.98;13.95;;;;;;;27.50;19.49;101240.00;5014990;28;20053;-75
2022/03/10 10:25:48;;;;;;;17.77;14.73;;;;;;;27.47;19.09;101235.81;4986367;28;20099;-76
2022/03/10 10:28:36;;;;;;;25.00;20.02;;;;;;;28.64;18.77;101239.50;4999851;28;20116;-76
2022/03/10 10:31:22;;;;;;;19.73;17.48;;;;;;;29.56;18.04;101233.88;4999577;28;20179;-76
2022/03/10 10:34:09;;;;;;;18.55;14.65;;;;;;;29.45;17.62;101225.69;4999945;28;20053;-75
2022/03/10 10:36:56;;;;;;;17.85;14.00;;;;;;;29.57;17.51;101226.50;5013667;28;20077;-75
2022/03/10 10:39:55;;;;;;;15.18;12.88;;;;;;;29.20;17.73;101219.63;5014440;28;20136;-76
2022/03/10 10:42:40;;;;;;;21.73;14.90;;;;;;;30.38;17.51;101220.31;5013645;28;20404;-76
2022/03/10 10:45:28;;;;;;;17.88;14.40;;;;;;;31.05;17.02;101216.38;5014559;28;20137;-76
2022/03/10 10:48:12;;;;;;;13.60;12.18;;;;;;;31.53;15.98;101207.34;5014432;28;20057;-76
2022/03/10 10:50:58;;;;;;;16.35;13.23;;;;;;;31.80;16.24;101216.50;5014399;28;20052;-75
2022/03/10 10:53:44;;;;;;;17.25;14.25;;;;;;;30.51;16.59;101197.94;5014441;28;20053;-75
2022/03/10 10:56:33;;;;;;;15.73;11.68;;;;;;;31.15;15.81;101200.00;4999299;28;20108;-75
2022/03/10 10:59:40;;;;;;;15.20;11.43;;;;;;;31.47;15.38;101186.34;4999773;28;20049;-74
2022/03/10 11:02:24;;;;;;;9.95;8.30;;;;;;;31.08;15.06;101188.34;5013864;28;20052;-75
2022/03/10 11:05:11;;;;;;;16.42;13.50;;;;;;;31.74;15.86;101192.72;4999065;28;20139;-75
2022/03/10 11:07:59;;;;;;;15.70;13.43;;;;;;;32.49;14.97;101179.63;4999657;28;20111;-75
2022/03/10 11:10:43;;;;;;;20.13;17.05;;;;;;;31.60;15.47;101174.91;5013995;28;20056;-75
2022/03/10 11:13:28;;;;;;;9.85;8.32;;;;;;;30.84;14.55;101181.38;4985242;28;20385;-75
2022/03/10 11:16:12;;;;;;;13.35;10.60;;;;;;;30.51;15.26;101170.44;5013779;28;20048;-75
2022/03/10 11:18:58;;;;;;;12.20;11.00;;;;;;;-139.48;100.00;61774.03;4985372;28;20048;-75
2022/03/10 11:22:27;;;;;;;9.98;8.50;;;;;;;-139.48;100.00;61774.03;5013689;28;20421;-75
2022/03/10 11:25:24;;;;;;;18.65;14.52;;;;;;;-139.48;100.00;61774.03;4999046;28;20103;-75
2022/03/10 11:28:18;;;;;;;12.00;10.52;;;;;;;-139.48;100.00;61774.03;5013829;28;20156;-74
2022/03/10 11:31:05;;;;;;;8.88;7.97;;;;;;;-139.48;100.00;61774.03;4998421;28;20237;-75
2022/03/10 11:33:49;;;;;;;8.98;7.95;;;;;;;-139.48;100.00;61774.03;4999244;28;20095;-75
2022/03/10 11:36:33;;;;;;;9.10;7.40;;;;;;;-139.48;100.00;61774.03;4998503;28;20052;-75
2022/03/10 11:39:23;;;;;;;10.55;7.10;;;;;;;31.61;13.90;101122.28;5013500;28;20056;-75
2022/03/10 11:42:28;;;;;;;8.40;7.32;;;;;;;31.62;14.31;101128.63;4984900;28;20492;-75
2022/03/10 11:45:18;;;;;;;10.90;8.63;;;;;;;31.07;15.05;101116.97;4998518;28;20065;-75
2022/03/10 11:48:28;;;;;;;8.70;7.72;;;;;;;31.62;14.72;101114.81;4998508;28;20119;-75
2022/03/10 11:51:17;;;;;;;7.22;6.53;;;;;;;29.28;15.96;101118.47;5013017;28;20047;-75
2022/03/10 11:54:05;;;;;;;29.52;23.80;;;;;;;31.36;15.38;101111.00;4998567;28;20068;-75
2022/03/10 11:56:52;;;;;;;12.05;6.88;;;;;;;31.34;14.94;101104.09;5013646;28;20513;-76
2022/03/10 11:59:39;;;;;;;9.57;8.43;;;;;;;32.81;14.14;101109.41;5013268;28;20052;-76
2022/03/10 12:02:43;;;;;;;9.65;8.05;;;;;;;33.29;14.36;101109.06;5012958;28;20524;-75
2022/03/10 12:05:52;;;;;;;7.82;6.13;;;;;;;32.17;14.12;101101.53;4998716;28;20053;-75
2022/03/10 12:08:38;;;;;;;8.35;7.45;;;;;;;32.46;13.98;101094.59;5013518;28;20095;-75
2022/03/10 12:11:22;;;;;;;10.40;7.50;;;;;;;33.22;14.25;101100.22;5011828;28;20057;-75
2022/03/10 12:14:26;;;;;;;10.43;8.90;;;;;;;31.79;14.17;101096.28;5012699;28;20048;-75
2022/03/10 12:17:45;;;;;;;13.05;7.43;;;;;;;31.86;14.51;101085.88;5012855;28;20133;-76
2022/03/10 12:20:40;;;;;;;10.70;8.65;;;;;;;32.01;14.37;101092.34;5013127;28;20048;-75
2022/03/10 12:23:28;;;;;;;12.85;11.48;;;;;;;30.75;15.23;101088.50;4998112;28;20099;-75
2022/03/10 12:26:12;;;;;;;11.68;8.57;;;;;;;30.01;15.39;101081.59;5011656;28;20515;-75
2022/03/10 12:28:58;;;;;;;8.40;7.35;;;;;;;28.74;17.04;101083.28;5012952;28;20049;-75
2022/03/10 12:31:42;;;;;;;9.45;7.78;;;;;;;28.74;17.04;101083.28;5012840;28;20057;-75
2022/03/10 12:34:26;;;;;;;11.48;8.60;;;;;;;29.24;16.08;101073.34;4984134;28;20053;-75
2022/03/10 12:37:14;;;;;;;12.45;8.93;;;;;;;27.86;17.55;101079.06;5011682;28;20049;-75
2022/03/10 12:39:58;;;;;;;12.20;8.65;;;;;;;26.32;18.42;101066.44;5013188;28;20052;-75
2022/03/10 12:42:42;;;;;;;17.92;10.55;;;;;;;26.01;18.22;101064.66;5012872;28;20048;-75
2022/03/10 12:45:27;;;;;;;10.20;7.72;;;;;;;25.55;17.75;101063.38;5012501;28;20053;-75
2022/03/10 12:48:15;;;;;;;13.77;10.00;;;;;;;24.70;20.09;101069.31;4984361;28;20068;-75
2022/03/10 12:50:59;;;;;;;22.73;14.88;;;;;;;24.29;19.83;101060.59;5011473;28;20057;-75